e-Mail: Password: Lost your password? Click here. - Register a new user

c h a v e z j u a r e z . c o m

Weather - Tiempo - Wetter - Temps

METAR DATA MMMX (Mexico City)

Mexico City / Licenci, Mexico (MMMX) 19-26N 099-06W
Dec 09, 2018 - 10:46 PM EST / 2018.12.10 0346 UTC
Wind: from the NNE (030 degrees) at 7 MPH (6 KT):0
Visibility: 8 mile(s):0
Sky conditions: mostly clear
Temperature: 60 F (16 C)
Dew Point: 41 F (5 C)
Relative Humidity: 47%
Pressure (altimeter): 30.39 in. Hg (1029 hPa)
ob: MMMX 100346Z 03006KT 8SM FEW020 16/05 A3039 NOSIG RMK 8/500 HZY CI
cycle: 4

Mexico City

St. Prex




Current weather alarms for Switzerland


www.wetteralarm.ch